sensor_id;sensor_type;location;lat;lon;timestamp;P1;durP1;ratioP1;P2;durP2;ratioP2
42096;SDS011;27754;45.414;11.084;2023-05-07T00:02:13;23.38;;;17.88;;
42096;SDS011;27754;45.414;11.084;2023-05-07T00:04:41;21.08;;;18.77;;
42096;SDS011;27754;45.414;11.084;2023-05-07T00:07:08;23.48;;;18.50;;
42096;SDS011;27754;45.414;11.084;2023-05-07T00:09:35;21.30;;;18.55;;
42096;SDS011;27754;45.414;11.084;2023-05-07T00:12:02;23.60;;;19.05;;
42096;SDS011;27754;45.414;11.084;2023-05-07T00:14:29;20.95;;;17.50;;
42096;SDS011;27754;45.414;11.084;2023-05-07T00:16:57;20.52;;;17.63;;
42096;SDS011;27754;45.414;11.084;2023-05-07T00:19:24;20.65;;;17.75;;
42096;SDS011;27754;45.414;11.084;2023-05-07T00:21:51;22.88;;;17.05;;
42096;SDS011;27754;45.414;11.084;2023-05-07T00:24:20;18.67;;;16.08;;
42096;SDS011;27754;45.414;11.084;2023-05-07T00:26:47;21.52;;;17.40;;
42096;SDS011;27754;45.414;11.084;2023-05-07T00:29:14;20.40;;;16.65;;
42096;SDS011;27754;45.414;11.084;2023-05-07T00:31:41;19.98;;;17.52;;
42096;SDS011;27754;45.414;11.084;2023-05-07T00:34:08;18.70;;;16.70;;
42096;SDS011;27754;45.414;11.084;2023-05-07T00:36:35;20.95;;;17.23;;
42096;SDS011;27754;45.414;11.084;2023-05-07T00:39:02;19.27;;;15.90;;
42096;SDS011;27754;45.414;11.084;2023-05-07T00:41:29;22.75;;;17.92;;
42096;SDS011;27754;45.414;11.084;2023-05-07T00:43:57;20.23;;;16.75;;
42096;SDS011;27754;45.414;11.084;2023-05-07T00:46:24;19.67;;;16.75;;
42096;SDS011;27754;45.414;11.084;2023-05-07T00:48:52;20.67;;;16.42;;
42096;SDS011;27754;45.414;11.084;2023-05-07T00:51:19;20.42;;;17.40;;
42096;SDS011;27754;45.414;11.084;2023-05-07T00:53:46;19.23;;;17.10;;
42096;SDS011;27754;45.414;11.084;2023-05-07T00:56:14;22.13;;;17.90;;
42096;SDS011;27754;45.414;11.084;2023-05-07T00:58:41;21.40;;;19.10;;
42096;SDS011;27754;45.414;11.084;2023-05-07T01:01:09;23.20;;;18.50;;
42096;SDS011;27754;45.414;11.084;2023-05-07T01:03:36;24.63;;;18.95;;
42096;SDS011;27754;45.414;11.084;2023-05-07T01:06:03;21.80;;;18.83;;
42096;SDS011;27754;45.414;11.084;2023-05-07T01:08:33;22.75;;;19.30;;
42096;SDS011;27754;45.414;11.084;2023-05-07T01:11:01;21.13;;;17.73;;
42096;SDS011;27754;45.414;11.084;2023-05-07T01:13:29;22.70;;;18.00;;
42096;SDS011;27754;45.414;11.084;2023-05-07T01:15:57;20.90;;;18.30;;
42096;SDS011;27754;45.414;11.084;2023-05-07T01:18:24;20.35;;;18.00;;
42096;SDS011;27754;45.414;11.084;2023-05-07T01:20:52;23.27;;;19.02;;
42096;SDS011;27754;45.414;11.084;2023-05-07T01:23:20;20.67;;;18.10;;
42096;SDS011;27754;45.414;11.084;2023-05-07T01:25:51;19.73;;;17.65;;
42096;SDS011;27754;45.414;11.084;2023-05-07T01:28:24;20.48;;;18.27;;
42096;SDS011;27754;45.414;11.084;2023-05-07T01:30:58;22.45;;;18.00;;
42096;SDS011;27754;45.414;11.084;2023-05-07T01:33:29;21.83;;;18.00;;
42096;SDS011;27754;45.414;11.084;2023-05-07T01:35:58;21.40;;;18.95;;
42096;SDS011;27754;45.414;11.084;2023-05-07T01:38:30;21.73;;;19.08;;
42096;SDS011;27754;45.414;11.084;2023-05-07T01:40:57;21.65;;;19.27;;
42096;SDS011;27754;45.414;11.084;2023-05-07T01:43:24;25.15;;;19.65;;
42096;SDS011;27754;45.414;11.084;2023-05-07T01:45:53;23.73;;;19.92;;
42096;SDS011;27754;45.414;11.084;2023-05-07T01:48:20;21.02;;;18.70;;
42096;SDS011;27754;45.414;11.084;2023-05-07T01:50:47;22.55;;;19.27;;
42096;SDS011;27754;45.414;11.084;2023-05-07T01:53:14;22.33;;;18.80;;
42096;SDS011;27754;45.414;11.084;2023-05-07T01:55:42;21.95;;;19.25;;
42096;SDS011;27754;45.414;11.084;2023-05-07T01:58:09;26.13;;;20.10;;
42096;SDS011;27754;45.414;11.084;2023-05-07T02:00:36;22.65;;;19.25;;
42096;SDS011;27754;45.414;11.084;2023-05-07T02:03:04;21.45;;;18.33;;
42096;SDS011;27754;45.414;11.084;2023-05-07T02:05:41;21.92;;;19.50;;
42096;SDS011;27754;45.414;11.084;2023-05-07T02:08:31;23.90;;;19.40;;
42096;SDS011;27754;45.414;11.084;2023-05-07T02:10:58;22.35;;;19.95;;
42096;SDS011;27754;45.414;11.084;2023-05-07T02:13:26;22.95;;;19.55;;
42096;SDS011;27754;45.414;11.084;2023-05-07T02:15:58;21.77;;;18.52;;
42096;SDS011;27754;45.414;11.084;2023-05-07T02:18:26;21.58;;;18.98;;
42096;SDS011;27754;45.414;11.084;2023-05-07T02:20:53;25.30;;;21.02;;
42096;SDS011;27754;45.414;11.084;2023-05-07T02:23:20;25.92;;;21.75;;
42096;SDS011;27754;45.414;11.084;2023-05-07T02:25:48;25.85;;;22.75;;
42096;SDS011;27754;45.414;11.084;2023-05-07T02:28:14;24.73;;;21.50;;
42096;SDS011;27754;45.414;11.084;2023-05-07T02:30:56;26.52;;;22.58;;
42096;SDS011;27754;45.414;11.084;2023-05-07T02:33:25;25.45;;;21.67;;
42096;SDS011;27754;45.414;11.084;2023-05-07T02:35:52;24.73;;;20.92;;
42096;SDS011;27754;45.414;11.084;2023-05-07T02:38:19;27.88;;;22.67;;
42096;SDS011;27754;45.414;11.084;2023-05-07T02:40:46;27.45;;;23.00;;
42096;SDS011;27754;45.414;11.084;2023-05-07T02:43:14;26.67;;;21.52;;
42096;SDS011;27754;45.414;11.084;2023-05-07T02:45:45;26.52;;;23.20;;
42096;SDS011;27754;45.414;11.084;2023-05-07T02:48:13;26.42;;;23.63;;
42096;SDS011;27754;45.414;11.084;2023-05-07T02:50:40;30.70;;;25.63;;
42096;SDS011;27754;45.414;11.084;2023-05-07T02:53:07;29.30;;;26.20;;
42096;SDS011;27754;45.414;11.084;2023-05-07T02:55:34;28.83;;;25.17;;
42096;SDS011;27754;45.414;11.084;2023-05-07T02:58:01;27.60;;;24.67;;
42096;SDS011;27754;45.414;11.084;2023-05-07T03:00:31;28.42;;;25.33;;
42096;SDS011;27754;45.414;11.084;2023-05-07T03:03:21;27.48;;;23.30;;
42096;SDS011;27754;45.414;11.084;2023-05-07T03:05:49;28.23;;;24.20;;
42096;SDS011;27754;45.414;11.084;2023-05-07T03:08:16;30.13;;;25.65;;
42096;SDS011;27754;45.414;11.084;2023-05-07T03:10:43;30.60;;;25.13;;
42096;SDS011;27754;45.414;11.084;2023-05-07T03:13:10;30.88;;;26.27;;
42096;SDS011;27754;45.414;11.084;2023-05-07T03:15:38;31.17;;;26.42;;
42096;SDS011;27754;45.414;11.084;2023-05-07T03:18:04;30.73;;;27.17;;
42096;SDS011;27754;45.414;11.084;2023-05-07T03:20:32;33.30;;;26.45;;
42096;SDS011;27754;45.414;11.084;2023-05-07T03:22:59;29.40;;;25.88;;
42096;SDS011;27754;45.414;11.084;2023-05-07T03:25:27;27.58;;;22.40;;
42096;SDS011;27754;45.414;11.084;2023-05-07T03:27:56;22.98;;;19.05;;
42096;SDS011;27754;45.414;11.084;2023-05-07T03:30:28;23.25;;;20.75;;
42096;SDS011;27754;45.414;11.084;2023-05-07T03:32:55;22.80;;;20.30;;
42096;SDS011;27754;45.414;11.084;2023-05-07T03:35:22;21.17;;;18.45;;
42096;SDS011;27754;45.414;11.084;2023-05-07T03:37:49;20.73;;;17.50;;
42096;SDS011;27754;45.414;11.084;2023-05-07T03:40:17;20.52;;;16.85;;
42096;SDS011;27754;45.414;11.084;2023-05-07T03:42:49;22.20;;;17.80;;
42096;SDS011;27754;45.414;11.084;2023-05-07T03:45:18;22.23;;;17.17;;
42096;SDS011;27754;45.414;11.084;2023-05-07T03:47:52;20.67;;;17.08;;
42096;SDS011;27754;45.414;11.084;2023-05-07T03:50:21;22.15;;;17.23;;
42096;SDS011;27754;45.414;11.084;2023-05-07T03:52:48;18.27;;;16.15;;
42096;SDS011;27754;45.414;11.084;2023-05-07T03:55:18;20.38;;;16.58;;
42096;SDS011;27754;45.414;11.084;2023-05-07T03:57:50;18.33;;;16.17;;
42096;SDS011;27754;45.414;11.084;2023-05-07T04:00:18;18.08;;;15.68;;
42096;SDS011;27754;45.414;11.084;2023-05-07T04:02:46;20.65;;;15.57;;
42096;SDS011;27754;45.414;11.084;2023-05-07T04:05:17;32.00;;;24.60;;
42096;SDS011;27754;45.414;11.084;2023-05-07T04:07:47;26.45;;;22.13;;
42096;SDS011;27754;45.414;11.084;2023-05-07T04:10:19;29.38;;;21.23;;
42096;SDS011;27754;45.414;11.084;2023-05-07T04:12:48;25.13;;;18.30;;
42096;SDS011;27754;45.414;11.084;2023-05-07T04:15:19;19.15;;;17.02;;
42096;SDS011;27754;45.414;11.084;2023-05-07T04:17:46;18.42;;;16.42;;
42096;SDS011;27754;45.414;11.084;2023-05-07T04:20:16;18.17;;;14.90;;
42096;SDS011;27754;45.414;11.084;2023-05-07T04:22:48;20.02;;;15.75;;
42096;SDS011;27754;45.414;11.084;2023-05-07T04:25:15;21.58;;;15.25;;
42096;SDS011;27754;45.414;11.084;2023-05-07T04:27:43;20.00;;;15.27;;
42096;SDS011;27754;45.414;11.084;2023-05-07T04:30:12;17.25;;;14.30;;
42096;SDS011;27754;45.414;11.084;2023-05-07T04:32:40;15.88;;;13.88;;
42096;SDS011;27754;45.414;11.084;2023-05-07T04:35:07;16.92;;;14.65;;
42096;SDS011;27754;45.414;11.084;2023-05-07T04:37:35;18.77;;;15.43;;
42096;SDS011;27754;45.414;11.084;2023-05-07T04:40:02;19.85;;;15.43;;
42096;SDS011;27754;45.414;11.084;2023-05-07T04:42:30;17.73;;;15.82;;
42096;SDS011;27754;45.414;11.084;2023-05-07T04:44:59;18.42;;;15.23;;
42096;SDS011;27754;45.414;11.084;2023-05-07T04:47:30;20.92;;;16.27;;
42096;SDS011;27754;45.414;11.084;2023-05-07T04:50:00;19.50;;;16.08;;
42096;SDS011;27754;45.414;11.084;2023-05-07T04:52:27;20.90;;;16.33;;
42096;SDS011;27754;45.414;11.084;2023-05-07T04:54:54;18.88;;;16.75;;
42096;SDS011;27754;45.414;11.084;2023-05-07T04:57:22;20.30;;;17.50;;
42096;SDS011;27754;45.414;11.084;2023-05-07T04:59:49;18.33;;;16.13;;
42096;SDS011;27754;45.414;11.084;2023-05-07T05:02:16;20.83;;;16.58;;
42096;SDS011;27754;45.414;11.084;2023-05-07T05:04:46;18.27;;;16.25;;
42096;SDS011;27754;45.414;11.084;2023-05-07T05:07:13;20.15;;;16.55;;
42096;SDS011;27754;45.414;11.084;2023-05-07T05:09:41;20.20;;;17.17;;
42096;SDS011;27754;45.414;11.084;2023-05-07T05:12:08;22.45;;;17.20;;
42096;SDS011;27754;45.414;11.084;2023-05-07T05:14:36;20.25;;;17.70;;
42096;SDS011;27754;45.414;11.084;2023-05-07T05:17:04;18.60;;;15.98;;
42096;SDS011;27754;45.414;11.084;2023-05-07T05:19:31;19.73;;;16.85;;
42096;SDS011;27754;45.414;11.084;2023-05-07T05:21:59;20.20;;;17.67;;
42096;SDS011;27754;45.414;11.084;2023-05-07T05:24:27;22.85;;;20.17;;
42096;SDS011;27754;45.414;11.084;2023-05-07T05:26:54;31.00;;;19.67;;
42096;SDS011;27754;45.414;11.084;2023-05-07T05:29:22;23.75;;;19.05;;
42096;SDS011;27754;45.414;11.084;2023-05-07T05:31:49;26.50;;;20.30;;
42096;SDS011;27754;45.414;11.084;2023-05-07T05:34:17;22.77;;;18.95;;
42096;SDS011;27754;45.414;11.084;2023-05-07T05:36:46;25.45;;;19.15;;
42096;SDS011;27754;45.414;11.084;2023-05-07T05:39:14;25.38;;;18.95;;
42096;SDS011;27754;45.414;11.084;2023-05-07T05:41:42;24.33;;;19.02;;
42096;SDS011;27754;45.414;11.084;2023-05-07T05:44:09;25.20;;;21.15;;
42096;SDS011;27754;45.414;11.084;2023-05-07T05:46:37;22.58;;;19.98;;
42096;SDS011;27754;45.414;11.084;2023-05-07T05:49:05;26.35;;;19.33;;
42096;SDS011;27754;45.414;11.084;2023-05-07T05:51:32;28.48;;;20.98;;
42096;SDS011;27754;45.414;11.084;2023-05-07T05:53:59;22.02;;;19.70;;
42096;SDS011;27754;45.414;11.084;2023-05-07T05:56:28;26.08;;;20.58;;
42096;SDS011;27754;45.414;11.084;2023-05-07T05:58:55;27.05;;;22.70;;
42096;SDS011;27754;45.414;11.084;2023-05-07T06:01:22;31.52;;;21.83;;
42096;SDS011;27754;45.414;11.084;2023-05-07T06:03:50;29.98;;;22.10;;
42096;SDS011;27754;45.414;11.084;2023-05-07T06:06:18;34.50;;;21.77;;
42096;SDS011;27754;45.414;11.084;2023-05-07T06:08:45;43.00;;;21.40;;
42096;SDS011;27754;45.414;11.084;2023-05-07T06:11:16;23.13;;;20.73;;
42096;SDS011;27754;45.414;11.084;2023-05-07T06:13:45;26.85;;;22.73;;
42096;SDS011;27754;45.414;11.084;2023-05-07T06:16:12;24.38;;;21.15;;
42096;SDS011;27754;45.414;11.084;2023-05-07T06:18:39;22.13;;;19.83;;
42096;SDS011;27754;45.414;11.084;2023-05-07T06:21:06;28.48;;;21.77;;
42096;SDS011;27754;45.414;11.084;2023-05-07T06:23:34;29.25;;;21.77;;
42096;SDS011;27754;45.414;11.084;2023-05-07T06:26:02;23.98;;;20.70;;
42096;SDS011;27754;45.414;11.084;2023-05-07T06:28:35;24.05;;;20.13;;
42096;SDS011;27754;45.414;11.084;2023-05-07T06:31:18;24.50;;;20.70;;
42096;SDS011;27754;45.414;11.084;2023-05-07T06:33:57;24.38;;;19.42;;
42096;SDS011;27754;45.414;11.084;2023-05-07T06:36:31;23.58;;;20.08;;
42096;SDS011;27754;45.414;11.084;2023-05-07T06:39:02;27.13;;;20.67;;
42096;SDS011;27754;45.414;11.084;2023-05-07T06:41:29;23.00;;;20.40;;
42096;SDS011;27754;45.414;11.084;2023-05-07T06:44:01;28.63;;;21.05;;
42096;SDS011;27754;45.414;11.084;2023-05-07T06:46:35;25.23;;;20.98;;
42096;SDS011;27754;45.414;11.084;2023-05-07T06:49:03;25.52;;;20.15;;
42096;SDS011;27754;45.414;11.084;2023-05-07T06:51:31;23.08;;;19.55;;
42096;SDS011;27754;45.414;11.084;2023-05-07T06:54:01;21.90;;;19.65;;
42096;SDS011;27754;45.414;11.084;2023-05-07T06:56:32;22.48;;;19.95;;
42096;SDS011;27754;45.414;11.084;2023-05-07T06:59:00;25.73;;;19.88;;
42096;SDS011;27754;45.414;11.084;2023-05-07T07:01:32;26.08;;;20.85;;
42096;SDS011;27754;45.414;11.084;2023-05-07T07:04:01;21.92;;;19.50;;
42096;SDS011;27754;45.414;11.084;2023-05-07T07:06:29;25.08;;;20.50;;
42096;SDS011;27754;45.414;11.084;2023-05-07T07:08:59;21.48;;;19.15;;
42096;SDS011;27754;45.414;11.084;2023-05-07T07:11:27;22.80;;;19.23;;
42096;SDS011;27754;45.414;11.084;2023-05-07T07:13:54;24.27;;;20.08;;
42096;SDS011;27754;45.414;11.084;2023-05-07T07:16:22;25.83;;;21.38;;
42096;SDS011;27754;45.414;11.084;2023-05-07T07:18:50;24.92;;;20.83;;
42096;SDS011;27754;45.414;11.084;2023-05-07T07:21:18;24.05;;;20.35;;
42096;SDS011;27754;45.414;11.084;2023-05-07T07:23:46;21.92;;;19.30;;
42096;SDS011;27754;45.414;11.084;2023-05-07T07:26:13;22.25;;;19.75;;
42096;SDS011;27754;45.414;11.084;2023-05-07T07:28:42;23.83;;;19.17;;
42096;SDS011;27754;45.414;11.084;2023-05-07T07:31:12;21.08;;;18.83;;
42096;SDS011;27754;45.414;11.084;2023-05-07T07:33:40;23.98;;;21.25;;
42096;SDS011;27754;45.414;11.084;2023-05-07T07:36:07;23.33;;;20.83;;
42096;SDS011;27754;45.414;11.084;2023-05-07T07:38:34;24.42;;;21.02;;
42096;SDS011;27754;45.414;11.084;2023-05-07T07:41:02;26.85;;;20.58;;
42096;SDS011;27754;45.414;11.084;2023-05-07T07:43:29;21.92;;;19.63;;
42096;SDS011;27754;45.414;11.084;2023-05-07T07:45:57;22.65;;;20.25;;
42096;SDS011;27754;45.414;11.084;2023-05-07T07:48:25;22.67;;;19.15;;
42096;SDS011;27754;45.414;11.084;2023-05-07T07:50:52;23.05;;;19.58;;
42096;SDS011;27754;45.414;11.084;2023-05-07T07:53:19;27.80;;;19.83;;
42096;SDS011;27754;45.414;11.084;2023-05-07T07:55:46;23.77;;;18.35;;
42096;SDS011;27754;45.414;11.084;2023-05-07T07:58:16;19.70;;;17.60;;
42096;SDS011;27754;45.414;11.084;2023-05-07T08:00:43;22.73;;;18.10;;
42096;SDS011;27754;45.414;11.084;2023-05-07T08:03:11;19.98;;;17.73;;
42096;SDS011;27754;45.414;11.084;2023-05-07T08:05:43;20.70;;;16.00;;
42096;SDS011;27754;45.414;11.084;2023-05-07T08:08:10;20.23;;;17.20;;
42096;SDS011;27754;45.414;11.084;2023-05-07T08:10:38;18.63;;;13.82;;
42096;SDS011;27754;45.414;11.084;2023-05-07T08:13:13;19.02;;;14.68;;
42096;SDS011;27754;45.414;11.084;2023-05-07T08:15:41;20.55;;;16.70;;
42096;SDS011;27754;45.414;11.084;2023-05-07T08:18:09;18.00;;;16.02;;
42096;SDS011;27754;45.414;11.084;2023-05-07T08:20:36;18.08;;;15.50;;
42096;SDS011;27754;45.414;11.084;2023-05-07T08:23:08;21.50;;;15.43;;
42096;SDS011;27754;45.414;11.084;2023-05-07T08:25:39;18.75;;;16.52;;
42096;SDS011;27754;45.414;11.084;2023-05-07T08:28:07;17.83;;;15.75;;
42096;SDS011;27754;45.414;11.084;2023-05-07T08:30:36;21.48;;;16.85;;
42096;SDS011;27754;45.414;11.084;2023-05-07T08:33:04;17.63;;;15.73;;
42096;SDS011;27754;45.414;11.084;2023-05-07T08:35:31;21.27;;;15.43;;
42096;SDS011;27754;45.414;11.084;2023-05-07T08:37:58;18.20;;;14.32;;
42096;SDS011;27754;45.414;11.084;2023-05-07T08:40:25;21.25;;;16.90;;
42096;SDS011;27754;45.414;11.084;2023-05-07T08:42:58;19.70;;;17.60;;
42096;SDS011;27754;45.414;11.084;2023-05-07T08:45:26;19.75;;;17.30;;
42096;SDS011;27754;45.414;11.084;2023-05-07T08:48:00;19.83;;;16.60;;
42096;SDS011;27754;45.414;11.084;2023-05-07T08:50:35;20.65;;;16.95;;
42096;SDS011;27754;45.414;11.084;2023-05-07T08:53:04;19.80;;;15.93;;
42096;SDS011;27754;45.414;11.084;2023-05-07T08:55:31;20.25;;;17.92;;
42096;SDS011;27754;45.414;11.084;2023-05-07T08:57:59;20.92;;;18.25;;
42096;SDS011;27754;45.414;11.084;2023-05-07T09:00:29;21.90;;;18.42;;
42096;SDS011;27754;45.414;11.084;2023-05-07T09:02:58;18.98;;;16.45;;
42096;SDS011;27754;45.414;11.084;2023-05-07T09:05:26;18.77;;;15.95;;
42096;SDS011;27754;45.414;11.084;2023-05-07T09:07:53;18.17;;;16.20;;
42096;SDS011;27754;45.414;11.084;2023-05-07T09:10:25;14.60;;;13.10;;
42096;SDS011;27754;45.414;11.084;2023-05-07T09:12:52;18.55;;;16.27;;
42096;SDS011;27754;45.414;11.084;2023-05-07T09:15:19;21.88;;;17.10;;
42096;SDS011;27754;45.414;11.084;2023-05-07T09:17:47;17.65;;;15.75;;
42096;SDS011;27754;45.414;11.084;2023-05-07T09:20:14;19.23;;;16.30;;
42096;SDS011;27754;45.414;11.084;2023-05-07T09:22:43;17.10;;;15.30;;
42096;SDS011;27754;45.414;11.084;2023-05-07T09:25:13;21.45;;;16.75;;
42096;SDS011;27754;45.414;11.084;2023-05-07T09:27:41;22.50;;;16.80;;
42096;SDS011;27754;45.414;11.084;2023-05-07T09:30:08;19.40;;;17.40;;
42096;SDS011;27754;45.414;11.084;2023-05-07T09:32:36;18.27;;;16.17;;
42096;SDS011;27754;45.414;11.084;2023-05-07T09:35:16;18.63;;;16.08;;
42096;SDS011;27754;45.414;11.084;2023-05-07T09:37:48;17.65;;;15.80;;
42096;SDS011;27754;45.414;11.084;2023-05-07T09:40:24;19.33;;;16.50;;
42096;SDS011;27754;45.414;11.084;2023-05-07T09:43:11;16.77;;;14.98;;
42096;SDS011;27754;45.414;11.084;2023-05-07T09:45:50;17.23;;;14.50;;
42096;SDS011;27754;45.414;11.084;2023-05-07T09:48:21;15.90;;;14.25;;
42096;SDS011;27754;45.414;11.084;2023-05-07T09:50:52;19.52;;;14.80;;
42096;SDS011;27754;45.414;11.084;2023-05-07T09:53:28;15.63;;;14.02;;
42096;SDS011;27754;45.414;11.084;2023-05-07T09:55:57;16.40;;;13.65;;
42096;SDS011;27754;45.414;11.084;2023-05-07T09:58:28;14.18;;;12.65;;
42096;SDS011;27754;45.414;11.084;2023-05-07T10:00:55;16.60;;;11.35;;
42096;SDS011;27754;45.414;11.084;2023-05-07T10:03:24;13.45;;;11.13;;
42096;SDS011;27754;45.414;11.084;2023-05-07T10:05:59;14.45;;;11.55;;
42096;SDS011;27754;45.414;11.084;2023-05-07T10:08:27;14.25;;;12.25;;
42096;SDS011;27754;45.414;11.084;2023-05-07T10:10:59;16.95;;;13.15;;
42096;SDS011;27754;45.414;11.084;2023-05-07T10:13:28;14.20;;;12.65;;
42096;SDS011;27754;45.414;11.084;2023-05-07T10:15:57;17.95;;;13.88;;
42096;SDS011;27754;45.414;11.084;2023-05-07T10:21:18;12.75;;;10.38;;
42096;SDS011;27754;45.414;11.084;2023-05-07T10:23:50;12.27;;;10.77;;
42096;SDS011;27754;45.414;11.084;2023-05-07T10:26:21;12.07;;;10.57;;
42096;SDS011;27754;45.414;11.084;2023-05-07T10:28:53;13.43;;;10.60;;
42096;SDS011;27754;45.414;11.084;2023-05-07T10:31:44;11.75;;;10.13;;
42096;SDS011;27754;45.414;11.084;2023-05-07T10:34:37;14.02;;;11.80;;
42096;SDS011;27754;45.414;11.084;2023-05-07T10:37:08;11.43;;;10.25;;
42096;SDS011;27754;45.414;11.084;2023-05-07T10:39:37;11.98;;;8.82;;
42096;SDS011;27754;45.414;11.084;2023-05-07T10:42:13;12.60;;;9.82;;
42096;SDS011;27754;45.414;11.084;2023-05-07T10:44:47;9.80;;;8.32;;
42096;SDS011;27754;45.414;11.084;2023-05-07T10:47:21;11.20;;;9.77;;
42096;SDS011;27754;45.414;11.084;2023-05-07T10:52:26;10.85;;;7.78;;
42096;SDS011;27754;45.414;11.084;2023-05-07T10:58:30;11.25;;;9.10;;
42096;SDS011;27754;45.414;11.084;2023-05-07T11:01:17;9.75;;;7.13;;
42096;SDS011;27754;45.414;11.084;2023-05-07T11:04:21;7.80;;;6.38;;
42096;SDS011;27754;45.414;11.084;2023-05-07T11:09:58;8.95;;;7.60;;
42096;SDS011;27754;45.414;11.084;2023-05-07T11:15:13;8.32;;;6.93;;
42096;SDS011;27754;45.414;11.084;2023-05-07T11:17:55;7.57;;;6.68;;
42096;SDS011;27754;45.414;11.084;2023-05-07T11:26:26;11.07;;;6.95;;
42096;SDS011;27754;45.414;11.084;2023-05-07T11:28:55;8.70;;;5.82;;
42096;SDS011;27754;45.414;11.084;2023-05-07T11:31:25;8.98;;;7.32;;
42096;SDS011;27754;45.414;11.084;2023-05-07T11:33:56;10.68;;;6.00;;
42096;SDS011;27754;45.414;11.084;2023-05-07T11:36:24;9.50;;;5.97;;
42096;SDS011;27754;45.414;11.084;2023-05-07T11:38:54;7.55;;;6.30;;
42096;SDS011;27754;45.414;11.084;2023-05-07T11:41:21;7.40;;;6.25;;
42096;SDS011;27754;45.414;11.084;2023-05-07T11:43:55;7.15;;;6.40;;
42096;SDS011;27754;45.414;11.084;2023-05-07T11:46:23;9.27;;;7.63;;
42096;SDS011;27754;45.414;11.084;2023-05-07T11:48:51;8.55;;;7.30;;
42096;SDS011;27754;45.414;11.084;2023-05-07T11:51:18;10.63;;;7.70;;
42096;SDS011;27754;45.414;11.084;2023-05-07T11:53:46;10.45;;;8.82;;
42096;SDS011;27754;45.414;11.084;2023-05-07T11:56:14;8.70;;;7.80;;
42096;SDS011;27754;45.414;11.084;2023-05-07T11:58:43;14.00;;;7.22;;
42096;SDS011;27754;45.414;11.084;2023-05-07T12:01:12;7.22;;;6.45;;
42096;SDS011;27754;45.414;11.084;2023-05-07T12:03:40;9.73;;;6.85;;
42096;SDS011;27754;45.414;11.084;2023-05-07T12:06:09;9.98;;;8.80;;
42096;SDS011;27754;45.414;11.084;2023-05-07T12:08:41;11.50;;;8.07;;
42096;SDS011;27754;45.414;11.084;2023-05-07T12:11:13;10.20;;;8.70;;
42096;SDS011;27754;45.414;11.084;2023-05-07T12:13:51;10.55;;;8.02;;
42096;SDS011;27754;45.414;11.084;2023-05-07T12:16:24;7.50;;;6.55;;
42096;SDS011;27754;45.414;11.084;2023-05-07T12:18:51;11.75;;;8.43;;
42096;SDS011;27754;45.414;11.084;2023-05-07T12:21:21;9.98;;;7.57;;
42096;SDS011;27754;45.414;11.084;2023-05-07T12:23:49;8.30;;;7.35;;
42096;SDS011;27754;45.414;11.084;2023-05-07T12:26:16;8.23;;;7.25;;
42096;SDS011;27754;45.414;11.084;2023-05-07T12:28:45;8.77;;;7.63;;
42096;SDS011;27754;45.414;11.084;2023-05-07T12:31:13;9.63;;;7.78;;
42096;SDS011;27754;45.414;11.084;2023-05-07T12:33:42;9.50;;;8.50;;
42096;SDS011;27754;45.414;11.084;2023-05-07T12:36:11;10.90;;;9.15;;
42096;SDS011;27754;45.414;11.084;2023-05-07T12:38:39;9.80;;;7.97;;
42096;SDS011;27754;45.414;11.084;2023-05-07T12:41:08;9.93;;;8.77;;
42096;SDS011;27754;45.414;11.084;2023-05-07T12:43:36;11.70;;;8.23;;
42096;SDS011;27754;45.414;11.084;2023-05-07T12:46:04;10.68;;;9.07;;
42096;SDS011;27754;45.414;11.084;2023-05-07T12:48:33;12.10;;;8.05;;
42096;SDS011;27754;45.414;11.084;2023-05-07T12:51:02;11.25;;;7.53;;
42096;SDS011;27754;45.414;11.084;2023-05-07T12:53:29;10.60;;;8.00;;
42096;SDS011;27754;45.414;11.084;2023-05-07T12:55:58;9.88;;;8.18;;
42096;SDS011;27754;45.414;11.084;2023-05-07T12:58:29;11.85;;;9.05;;
42096;SDS011;27754;45.414;11.084;2023-05-07T13:00:59;12.35;;;9.10;;
42096;SDS011;27754;45.414;11.084;2023-05-07T13:03:28;11.52;;;9.73;;
42096;SDS011;27754;45.414;11.084;2023-05-07T13:05:58;15.15;;;9.82;;
42096;SDS011;27754;45.414;11.084;2023-05-07T13:08:36;11.65;;;9.00;;
42096;SDS011;27754;45.414;11.084;2023-05-07T13:11:04;13.48;;;10.27;;
42096;SDS011;27754;45.414;11.084;2023-05-07T13:13:31;11.40;;;10.20;;
42096;SDS011;27754;45.414;11.084;2023-05-07T13:15:59;9.50;;;8.32;;
42096;SDS011;27754;45.414;11.084;2023-05-07T13:18:29;12.50;;;8.57;;
42096;SDS011;27754;45.414;11.084;2023-05-07T13:20:57;8.85;;;7.95;;
42096;SDS011;27754;45.414;11.084;2023-05-07T13:23:24;13.57;;;9.38;;
42096;SDS011;27754;45.414;11.084;2023-05-07T13:25:51;10.65;;;8.93;;
42096;SDS011;27754;45.414;11.084;2023-05-07T13:28:20;10.07;;;8.90;;
42096;SDS011;27754;45.414;11.084;2023-05-07T13:30:47;10.73;;;8.50;;
42096;SDS011;27754;45.414;11.084;2023-05-07T13:33:14;9.82;;;7.88;;
42096;SDS011;27754;45.414;11.084;2023-05-07T13:35:42;13.52;;;8.00;;
42096;SDS011;27754;45.414;11.084;2023-05-07T13:38:09;8.77;;;7.85;;
42096;SDS011;27754;45.414;11.084;2023-05-07T13:40:36;7.93;;;6.72;;
42096;SDS011;27754;45.414;11.084;2023-05-07T13:43:03;10.80;;;8.30;;
42096;SDS011;27754;45.414;11.084;2023-05-07T13:45:31;8.32;;;6.50;;
42096;SDS011;27754;45.414;11.084;2023-05-07T13:47:58;9.50;;;8.50;;
42096;SDS011;27754;45.414;11.084;2023-05-07T13:50:26;11.27;;;8.63;;
42096;SDS011;27754;45.414;11.084;2023-05-07T13:52:53;9.25;;;8.13;;
42096;SDS011;27754;45.414;11.084;2023-05-07T13:55:20;9.00;;;7.90;;
42096;SDS011;27754;45.414;11.084;2023-05-07T13:57:54;10.05;;;9.05;;
42096;SDS011;27754;45.414;11.084;2023-05-07T14:00:23;11.35;;;10.10;;
42096;SDS011;27754;45.414;11.084;2023-05-07T14:02:51;11.57;;;10.38;;
42096;SDS011;27754;45.414;11.084;2023-05-07T14:05:18;12.05;;;10.18;;
42096;SDS011;27754;45.414;11.084;2023-05-07T14:07:46;11.70;;;10.13;;
42096;SDS011;27754;45.414;11.084;2023-05-07T14:10:13;10.02;;;8.50;;
42096;SDS011;27754;45.414;11.084;2023-05-07T14:12:41;9.60;;;8.55;;
42096;SDS011;27754;45.414;11.084;2023-05-07T14:15:09;11.43;;;9.18;;
42096;SDS011;27754;45.414;11.084;2023-05-07T14:17:36;13.25;;;8.52;;
42096;SDS011;27754;45.414;11.084;2023-05-07T14:20:04;10.75;;;9.57;;
42096;SDS011;27754;45.414;11.084;2023-05-07T14:22:33;11.43;;;9.38;;
42096;SDS011;27754;45.414;11.084;2023-05-07T14:24:59;12.00;;;8.75;;
42096;SDS011;27754;45.414;11.084;2023-05-07T14:27:32;11.93;;;8.82;;
42096;SDS011;27754;45.414;11.084;2023-05-07T14:29:59;11.55;;;8.30;;
42096;SDS011;27754;45.414;11.084;2023-05-07T14:32:26;13.75;;;10.00;;
42096;SDS011;27754;45.414;11.084;2023-05-07T14:34:53;12.68;;;8.25;;
42096;SDS011;27754;45.414;11.084;2023-05-07T14:37:20;9.75;;;8.43;;
42096;SDS011;27754;45.414;11.084;2023-05-07T14:39:47;10.73;;;8.48;;
42096;SDS011;27754;45.414;11.084;2023-05-07T14:42:16;9.98;;;8.18;;
42096;SDS011;27754;45.414;11.084;2023-05-07T14:44:44;9.20;;;8.30;;
42096;SDS011;27754;45.414;11.084;2023-05-07T14:47:12;10.75;;;9.45;;